Time;durP1;ratioP1;P1;durP2;ratioP2;P2;SDS_P1;SDS_P2;PMS_P1;PMS_P2;Temp;Humidity;BMP_temperature;BMP_pressure;BME280_temperature;BME280_humidity;BME280_pressure;Samples;Min_cycle;Max_cycle;Signal;HPM_P1;HPM_P2
2022/12/09 00:01:58;;;;;;;;;;;;;;;11.64;73.10;95087.63;5115203;28;1064;-68
2022/12/09 00:04:24;;;;;;;;;;;;;;;11.69;72.99;95093.34;5080416;28;1579;-69
2022/12/09 00:06:51;;;;;;;;;;;;;;;11.77;72.57;95089.81;5114963;28;1060;-69
2022/12/09 00:09:17;;;;;;;;;;;;;;;11.82;72.29;95091.97;5115241;28;1068;-69
2022/12/09 00:11:43;;;;;;;;;;;;;;;11.68;72.71;95098.84;5114831;28;1085;-69
2022/12/09 00:14:10;;;;;;;;;;;;;;;11.60;72.87;95098.88;5114914;28;1174;-69
2022/12/09 00:16:37;;;;;;;;;;;;;;;11.58;72.63;95104.38;5114880;28;996;-69
2022/12/09 00:19:06;;;;;;;;;;;;;;;11.60;71.80;95099.69;5114876;28;1914;-69
2022/12/09 00:21:32;;;;;;;;;;;;;;;11.57;72.29;95093.84;5114693;28;1120;-69
2022/12/09 00:24:00;;;;;;;;;;;;;;;11.55;72.55;95106.56;5114993;28;1036;-69
2022/12/09 00:26:26;;;;;;;;;;;;;;;11.52;72.70;95103.22;5114796;28;965;-69
2022/12/09 00:28:53;;;;;;;;;;;;;;;11.26;74.08;95102.56;5114712;28;1045;-69
2022/12/09 00:31:23;;;;;;;;;;;;;;;11.25;74.63;95104.41;5114727;28;1056;-69
2022/12/09 00:33:49;;;;;;;;;;;;;;;11.45;73.71;95096.03;5059708;28;1548485;-69
2022/12/09 00:36:20;;;;;;;;;;;;;;;11.56;72.46;95101.03;5115599;28;1238;-68
2022/12/09 00:38:46;;;;;;;;;;;;;;;11.50;72.51;95099.03;5115293;28;1894;-68
2022/12/09 00:41:13;;;;;;;;;;;;;;;11.32;73.16;95089.34;5115277;28;1013;-68
2022/12/09 00:43:40;;;;;;;;;;;;;;;11.34;73.17;95097.19;5097202;28;1050;-69
2022/12/09 00:46:06;;;;;;;;;;;;;;;11.18;74.48;95100.72;5115344;28;1073;-69
2022/12/09 00:48:33;;;;;;;;;;;;;;;11.15;74.90;95106.38;5115400;28;1491;-69
2022/12/09 00:51:00;;;;;;;;;;;;;;;11.18;74.90;95106.06;5115257;28;1038;-69
2022/12/09 00:53:27;;;;;;;;;;;;;;;11.24;73.67;95110.75;5115373;28;1024;-69
2022/12/09 00:55:53;;;;;;;;;;;;;;;11.23;73.42;95108.22;5115240;28;1574;-69
2022/12/09 00:58:20;;;;;;;;;;;;;;;11.23;73.55;95098.38;5097244;28;1937;-68
2022/12/09 01:00:46;;;;;;;;;;;;;;;11.19;73.97;95101.53;5114156;28;1092;-68
2022/12/09 01:03:13;;;;;;;;;;;;;;;11.26;73.94;95102.56;5114931;28;969;-68
2022/12/09 01:05:40;;;;;;;;;;;;;;;11.24;74.28;95104.56;5080222;28;1650;-68
2022/12/09 01:08:06;;;;;;;;;;;;;;;11.13;74.79;95105.72;5114926;28;1041;-69
2022/12/09 01:10:33;;;;;;;;;;;;;;;11.23;74.48;95109.09;5114782;28;1100;-69
2022/12/09 01:13:00;;;;;;;;;;;;;;;11.39;73.80;95113.59;5097034;28;961;-69
2022/12/09 01:15:26;;;;;;;;;;;;;;;11.45;73.36;95114.78;5096765;28;1011;-68
2022/12/09 01:17:52;;;;;;;;;;;;;;;11.41;73.06;95106.22;5114702;28;1049;-68
2022/12/09 01:20:18;;;;;;;;;;;;;;;11.29;73.30;95097.72;5096620;28;1910;-69
2022/12/09 01:22:45;;;;;;;;;;;;;;;11.09;74.24;95102.53;5114584;28;1057;-68
2022/12/09 01:25:11;;;;;;;;;;;;;;;10.87;75.60;95101.34;5114828;28;1023;-69
2022/12/09 01:27:38;;;;;;;;;;;;;;;10.99;75.49;95109.06;5114455;28;1084;-69
2022/12/09 01:30:05;;;;;;;;;;;;;;;10.90;75.88;95108.19;5114562;28;1041;-68
2022/12/09 01:32:32;;;;;;;;;;;;;;;10.93;76.03;95102.53;5114376;28;1135;-69
2022/12/09 01:34:59;;;;;;;;;;;;;;;11.04;75.83;95106.69;5096375;28;1442;-69
2022/12/09 01:37:26;;;;;;;;;;;;;;;11.00;75.72;95116.88;5096252;28;1050;-68
2022/12/09 01:39:52;;;;;;;;;;;;;;;11.08;75.37;95105.41;5114541;28;1983;-69
2022/12/09 01:42:20;;;;;;;;;;;;;;;11.19;74.97;95104.22;5096318;28;954;-68
2022/12/09 01:45:05;;;;;;;;;;;;;;;11.28;74.38;95098.69;5114254;28;1237;-68
2022/12/09 01:47:31;;;;;;;;;;;;;;;11.28;74.35;95095.19;5114130;28;1048;-69
2022/12/09 01:49:58;;;;;;;;;;;;;;;11.32;73.78;95100.06;5114376;28;1028;-68
2022/12/09 01:52:24;;;;;;;;;;;;;;;11.33;73.96;95103.56;5114082;28;1203;-69
2022/12/09 01:54:51;;;;;;;;;;;;;;;11.29;73.96;95107.59;5096162;28;1091;-69
2022/12/09 01:57:18;;;;;;;;;;;;;;;11.27;73.98;95106.91;5114133;28;1120;-69
2022/12/09 01:59:45;;;;;;;;;;;;;;;11.26;74.18;95097.19;5095793;28;1983;-69
2022/12/09 02:02:13;;;;;;;;;;;;;;;11.31;74.12;95095.69;5113965;28;1108;-69
2022/12/09 02:04:41;;;;;;;;;;;;;;;11.33;73.02;95090.19;5113904;28;937;-68
2022/12/09 02:07:09;;;;;;;;;;;;;;;11.24;73.50;95081.31;5113942;28;1057;-68
2022/12/09 02:09:36;;;;;;;;;;;;;;;11.05;74.19;95092.34;5113947;28;1032;-68
2022/12/09 02:12:11;;;;;;;;;;;;;;;10.91;75.17;95091.16;5113746;28;1183;-68
2022/12/09 02:14:55;;;;;;;;;;;;;;;11.04;74.25;95094.19;5113926;28;992;-69
2022/12/09 02:17:36;;;;;;;;;;;;;;;11.03;73.57;95087.13;5095963;28;991;-68
2022/12/09 02:20:09;;;;;;;;;;;;;;;10.97;73.66;95078.94;5095726;28;1905;-68
2022/12/09 02:22:41;;;;;;;;;;;;;;;10.83;74.34;95080.41;5113642;28;1037;-69
2022/12/09 02:25:10;;;;;;;;;;;;;;;10.80;74.59;95080.75;5113965;28;1036;-69
2022/12/09 02:27:42;;;;;;;;;;;;;;;10.67;74.52;95095.44;5113779;28;973;-69
2022/12/09 02:30:18;;;;;;;;;;;;;;;10.69;74.11;95096.09;5113865;28;1013;-69
2022/12/09 02:32:50;;;;;;;;;;;;;;;10.54;75.18;95098.56;5113516;28;1120;-69
2022/12/09 02:35:35;;;;;;;;;;;;;;;10.50;75.29;95096.38;5113385;28;1419;-69
2022/12/09 02:38:10;;;;;;;;;;;;;;;10.28;75.13;95093.28;5113785;28;1053;-68
2022/12/09 02:40:44;;;;;;;;;;;;;;;9.91;76.80;95098.94;5093241;28;1914;-68
2022/12/09 02:43:12;;;;;;;;;;;;;;;9.93;76.69;95084.41;5093205;28;1099;-68
2022/12/09 02:45:40;;;;;;;;;;;;;;;10.01;76.34;95082.78;5093016;28;1104;-68
2022/12/09 02:48:08;;;;;;;;;;;;;;;10.11;73.57;95084.34;5093153;28;1064;-68
2022/12/09 02:50:36;;;;;;;;;;;;;;;10.12;73.47;95085.19;5075105;28;1105;-68
2022/12/09 02:53:05;;;;;;;;;;;;;;;9.95;73.52;95093.09;5093645;28;966;-68
2022/12/09 02:55:33;;;;;;;;;;;;;;;9.70;74.73;95094.78;5093223;28;1560;-68
2022/12/09 02:58:00;;;;;;;;;;;;;;;9.67;75.31;95097.75;5093146;28;1028;-69
2022/12/09 03:00:27;;;;;;;;;;;;;;;9.80;74.90;95094.69;5074899;28;1910;-69
2022/12/09 03:03:04;;;;;;;;;;;;;;;9.56;76.34;95100.69;5093246;28;1001;-69
2022/12/09 03:05:56;;;;;;;;;;;;;;;9.61;76.48;95089.56;5093034;28;1053;-68
2022/12/09 03:08:40;;;;;;;;;;;;;;;9.75;74.95;95088.97;5092751;28;1411;-68
2022/12/09 03:11:11;;;;;;;;;;;;;;;9.85;74.81;95089.72;5092948;28;1105;-68
2022/12/09 03:13:37;;;;;;;;;;;;;;;9.92;74.74;95098.78;5092856;28;1123;-68
2022/12/09 03:16:15;;;;;;;;;;;;;;;9.84;72.95;95104.03;5093002;28;1045;-69
2022/12/09 03:18:45;;;;;;;;;;;;;;;9.68;73.94;95095.94;5092840;28;1997;-68
2022/12/09 03:21:13;;;;;;;;;;;;;;;9.60;74.24;95088.72;5092817;28;1073;-68
2022/12/09 03:23:41;;;;;;;;;;;;;;;9.60;74.96;95096.75;5095104;28;1052;-69
2022/12/09 03:26:08;;;;;;;;;;;;;;;9.43;75.94;95093.13;5096712;28;1068;-68
2022/12/09 03:28:40;;;;;;;;;;;;;;;9.63;74.97;95087.56;5096577;28;1004;-68
2022/12/09 03:31:11;;;;;;;;;;;;;;;9.65;73.41;95086.41;5096568;28;997;-68
2022/12/09 03:33:39;;;;;;;;;;;;;;;9.61;73.49;95092.22;5096265;28;1246;-69
2022/12/09 03:36:09;;;;;;;;;;;;;;;9.44;74.19;95084.09;5096420;28;1120;-69
2022/12/09 03:38:37;;;;;;;;;;;;;;;9.31;75.57;95092.50;5099934;28;1898;-69
2022/12/09 03:41:07;;;;;;;;;;;;;;;9.32;76.84;95096.84;5116850;28;956;-68
2022/12/09 03:43:35;;;;;;;;;;;;;;;9.40;76.26;95101.41;5116561;28;1136;-69
2022/12/09 03:46:01;;;;;;;;;;;;;;;9.59;74.04;95092.38;5116651;28;989;-68
2022/12/09 03:48:28;;;;;;;;;;;;;;;9.58;73.96;95096.06;5098296;28;1289;-69
2022/12/09 03:50:58;;;;;;;;;;;;;;;9.52;74.22;95102.00;5116401;28;1049;-69
2022/12/09 03:53:30;;;;;;;;;;;;;;;9.38;74.90;95108.75;5116659;28;1020;-68
2022/12/09 03:55:56;;;;;;;;;;;;;;;9.53;74.47;95107.19;5098526;28;1445;-68
2022/12/09 03:58:23;;;;;;;;;;;;;;;9.60;74.14;95102.06;5116344;28;1101;-68
2022/12/09 04:00:50;;;;;;;;;;;;;;;9.28;75.35;95106.16;5116107;28;1905;-69
2022/12/09 04:03:17;;;;;;;;;;;;;;;9.18;75.00;95110.72;5098200;28;1066;-68
2022/12/09 04:05:43;;;;;;;;;;;;;;;9.31;74.69;95107.69;5116356;28;917;-68
2022/12/09 04:08:10;;;;;;;;;;;;;;;9.34;74.01;95104.72;5116147;28;1045;-68
2022/12/09 04:10:36;;;;;;;;;;;;;;;9.16;74.20;95099.38;5098039;28;1053;-68
2022/12/09 04:13:02;;;;;;;;;;;;;;;9.02;75.69;95100.75;5115980;28;1069;-68
2022/12/09 04:15:29;;;;;;;;;;;;;;;9.14;75.51;95094.22;5116086;28;1396;-68
2022/12/09 04:17:55;;;;;;;;;;;;;;;9.15;74.24;95095.88;5115922;28;1049;-68
2022/12/09 04:20:21;;;;;;;;;;;;;;;9.05;75.34;95095.13;5115814;28;1987;-68
2022/12/09 04:22:47;;;;;;;;;;;;;;;9.15;75.09;95089.72;5116025;28;1016;-68
2022/12/09 04:25:13;;;;;;;;;;;;;;;9.27;74.86;95087.63;5115986;28;981;-68
2022/12/09 04:27:40;;;;;;;;;;;;;;;9.38;74.18;95096.22;5115742;28;1173;-68
2022/12/09 04:30:07;;;;;;;;;;;;;;;9.41;74.45;95095.09;5097625;28;1220;-67
2022/12/09 04:32:34;;;;;;;;;;;;;;;9.38;73.52;95092.72;5115591;28;1057;-69
2022/12/09 04:35:00;;;;;;;;;;;;;;;9.21;75.00;95096.25;5114391;28;1118;-68
2022/12/09 04:37:26;;;;;;;;;;;;;;;9.24;74.53;95109.28;5115672;28;1093;-68
2022/12/09 04:39:52;;;;;;;;;;;;;;;9.32;74.17;95109.38;5115362;28;1905;-68
2022/12/09 04:42:20;;;;;;;;;;;;;;;9.44;73.77;95109.94;5115511;28;1040;-68
2022/12/09 04:44:46;;;;;;;;;;;;;;;9.47;74.30;95110.47;5115309;28;1044;-68
2022/12/09 04:47:12;;;;;;;;;;;;;;;9.40;74.97;95097.91;5097323;28;1147;-68
2022/12/09 04:49:38;;;;;;;;;;;;;;;9.41;74.72;95105.78;5097398;28;1021;-69
2022/12/09 04:52:04;;;;;;;;;;;;;;;9.33;74.31;95106.56;5115205;28;1046;-68
2022/12/09 04:54:31;;;;;;;;;;;;;;;9.31;75.04;95099.66;5115262;28;1086;-68
2022/12/09 04:56:57;;;;;;;;;;;;;;;9.30;74.89;95098.00;5115261;28;1147;-68
2022/12/09 04:59:23;;;;;;;;;;;;;;;9.41;73.96;95099.56;5115002;28;1902;-68
2022/12/09 05:01:50;;;;;;;;;;;;;;;9.33;74.58;95109.22;5115253;28;1024;-68
2022/12/09 05:04:16;;;;;;;;;;;;;;;9.29;75.14;95102.50;5115020;28;1045;-68
2022/12/09 05:06:42;;;;;;;;;;;;;;;9.38;75.73;95108.75;5115086;28;974;-68
2022/12/09 05:09:11;;;;;;;;;;;;;;;9.25;76.45;95110.97;5115074;28;1029;-69
2022/12/09 05:11:37;;;;;;;;;;;;;;;9.14;77.38;95109.38;5096785;28;1024;-70
2022/12/09 05:14:04;;;;;;;;;;;;;;;9.35;76.99;95101.91;5114761;28;937;-76
2022/12/09 05:16:30;;;;;;;;;;;;;;;9.52;75.52;95113.53;5114872;28;1005;-69
2022/12/09 05:18:58;;;;;;;;;;;;;;;9.45;75.14;95115.13;5114902;28;1910;-69
2022/12/09 05:21:24;;;;;;;;;;;;;;;9.35;76.43;95106.38;5114821;28;1025;-69
2022/12/09 05:23:50;;;;;;;;;;;;;;;9.42;76.44;95118.09;5114790;28;1095;-69
2022/12/09 05:26:17;;;;;;;;;;;;;;;9.55;76.04;95123.88;5114696;28;1029;-68
2022/12/09 05:28:43;;;;;;;;;;;;;;;9.56;77.33;95130.03;5114433;28;961;-68
2022/12/09 05:31:11;;;;;;;;;;;;;;;9.66;76.39;95129.97;5114514;28;1065;-69
2022/12/09 05:33:37;;;;;;;;;;;;;;;9.68;73.83;95128.00;5114425;28;1238;-70
2022/12/09 05:36:07;;;;;;;;;;;;;;;9.47;74.95;95131.00;5114469;28;1063;-69
2022/12/09 05:38:33;;;;;;;;;;;;;;;9.24;76.80;95141.28;5114094;28;1918;-69
2022/12/09 05:40:59;;;;;;;;;;;;;;;9.28;76.77;95140.84;5114373;28;1057;-68
2022/12/09 05:43:25;;;;;;;;;;;;;;;9.35;76.61;95141.06;5114127;28;1001;-69
2022/12/09 05:45:51;;;;;;;;;;;;;;;9.52;76.00;95129.53;5114141;28;989;-69
2022/12/09 05:48:18;;;;;;;;;;;;;;;9.48;76.09;95133.50;5114406;28;992;-69
2022/12/09 05:50:44;;;;;;;;;;;;;;;9.55;75.87;95134.56;5114185;28;1032;-69
2022/12/09 05:53:10;;;;;;;;;;;;;;;9.55;75.87;95131.88;5114129;28;1057;-69
2022/12/09 05:55:38;;;;;;;;;;;;;;;9.56;76.24;95132.72;5096287;28;1099;-69
2022/12/09 05:58:04;;;;;;;;;;;;;;;9.53;76.22;95127.72;5114025;28;1044;-70
2022/12/09 06:00:30;;;;;;;;;;;;;;;9.55;76.10;95133.72;5114202;28;1898;-72
2022/12/09 06:02:57;;;;;;;;;;;;;;;9.39;76.80;95129.13;5114018;28;1030;-69
2022/12/09 06:05:23;;;;;;;;;;;;;;;9.44;76.96;95117.97;5114096;28;1020;-69
2022/12/09 06:07:49;;;;;;;;;;;;;;;9.53;76.83;95115.19;5113955;28;1021;-68
2022/12/09 06:10:15;;;;;;;;;;;;;;;9.67;76.16;95115.63;5113992;28;1124;-69
2022/12/09 06:12:41;;;;;;;;;;;;;;;9.70;75.69;95116.16;5113711;28;950;-69
2022/12/09 06:15:07;;;;;;;;;;;;;;;9.48;77.26;95116.66;5114055;28;1017;-69
2022/12/09 06:17:33;;;;;;;;;;;;;;;9.63;77.04;95117.75;5113744;28;1092;-69
2022/12/09 06:19:59;;;;;;;;;;;;;;;9.72;76.42;95121.34;5113831;28;1906;-69
2022/12/09 06:22:26;;;;;;;;;;;;;;;9.54;77.61;95122.22;5095726;28;1032;-69
2022/12/09 06:24:52;;;;;;;;;;;;;;;9.72;77.24;95118.66;5095745;28;1057;-69
2022/12/09 06:27:18;;;;;;;;;;;;;;;9.83;77.03;95131.75;5113660;28;985;-69
2022/12/09 06:29:44;;;;;;;;;;;;;;;9.95;77.02;95135.00;5113828;28;1009;-70
2022/12/09 06:32:10;;;;;;;;;;;;;;;10.06;76.62;95131.22;5113659;28;1080;-69
2022/12/09 06:34:36;;;;;;;;;;;;;;;10.11;76.33;95128.91;5113387;28;1084;-68
2022/12/09 06:37:03;;;;;;;;;;;;;;;10.22;75.74;95142.00;5095591;28;1081;-68
2022/12/09 06:39:29;;;;;;;;;;;;;;;10.23;75.88;95143.69;5113290;28;1991;-68
2022/12/09 06:41:55;;;;;;;;;;;;;;;10.27;76.01;95144.19;5113566;28;1069;-69
2022/12/09 06:44:21;;;;;;;;;;;;;;;10.23;75.62;95138.34;5113793;28;974;-69
2022/12/09 06:46:47;;;;;;;;;;;;;;;9.93;77.41;95140.50;5113411;28;1069;-68
2022/12/09 06:49:13;;;;;;;;;;;;;;;9.77;78.35;95137.72;5113899;28;1076;-68
2022/12/09 06:51:39;;;;;;;;;;;;;;;9.91;77.45;95145.16;5095407;28;1248;-69
2022/12/09 06:54:08;;;;;;;;;;;;;;;9.90;77.95;95142.63;5113550;28;1143;-68
2022/12/09 06:56:34;;;;;;;;;;;;;;;9.94;77.92;95141.31;5095358;28;1052;-69
2022/12/09 06:59:04;;;;;;;;;;;;;;;10.03;77.71;95145.72;5116278;28;1986;-68
2022/12/09 07:01:30;;;;;;;;;;;;;;;9.99;78.29;95154.22;5117592;28;961;-68
2022/12/09 07:03:56;;;;;;;;;;;;;;;10.07;77.88;95162.28;5099473;28;1055;-68
2022/12/09 07:06:22;;;;;;;;;;;;;;;10.21;77.65;95158.19;5117417;28;1032;-68
2022/12/09 07:08:48;;;;;;;;;;;;;;;10.19;77.78;95162.84;5099180;28;1053;-69
2022/12/09 07:11:15;;;;;;;;;;;;;;;10.16;78.25;95164.84;5117190;28;1033;-68
2022/12/09 07:13:41;;;;;;;;;;;;;;;10.15;78.74;95152.50;5117095;28;1109;-68
2022/12/09 07:16:07;;;;;;;;;;;;;;;10.28;78.39;95169.91;5117381;28;1064;-69
2022/12/09 07:18:33;;;;;;;;;;;;;;;10.37;78.39;95166.31;5117226;28;1037;-68
2022/12/09 07:21:09;;;;;;;;;;;;;;;10.42;78.02;95168.53;5117191;28;1033;-68
2022/12/09 07:23:36;;;;;;;;;;;;;;;10.56;77.95;95170.59;5116878;28;1143;-68
2022/12/09 07:26:04;;;;;;;;;;;;;;;10.61;77.00;95173.63;5116976;28;1048;-69
2022/12/09 07:28:30;;;;;;;;;;;;;;;10.60;77.18;95165.75;5117019;28;984;-69
2022/12/09 07:30:56;;;;;;;;;;;;;;;10.60;77.26;95166.59;5117086;28;1024;-69
2022/12/09 07:33:23;;;;;;;;;;;;;;;10.58;77.51;95160.56;5113837;27;1128;-69
2022/12/09 07:35:49;;;;;;;;;;;;;;;10.58;77.78;95144.53;5116726;28;1124;-69
2022/12/09 07:38:15;;;;;;;;;;;;;;;10.53;78.24;95138.84;5116639;28;1216;-69
2022/12/09 07:40:41;;;;;;;;;;;;;;;10.60;78.49;95139.03;5116840;28;1986;-69
2022/12/09 07:43:07;;;;;;;;;;;;;;;10.63;78.34;95144.06;5116350;28;1054;-69
2022/12/09 07:45:33;;;;;;;;;;;;;;;10.70;78.34;95142.41;5116657;28;1058;-69
2022/12/09 07:47:59;;;;;;;;;;;;;;;10.71;78.15;95144.06;5098632;28;933;-70
2022/12/09 07:50:25;;;;;;;;;;;;;;;10.69;77.93;95154.94;5116491;28;970;-69
2022/12/09 07:52:51;;;;;;;;;;;;;;;10.75;78.45;95164.97;5098083;28;1052;-70
2022/12/09 07:55:18;;;;;;;;;;;;;;;10.70;78.89;95161.13;5116582;28;961;-68
2022/12/09 07:57:44;;;;;;;;;;;;;;;10.78;79.01;95149.63;5116494;28;1041;-69
2022/12/09 08:00:10;;;;;;;;;;;;;;;11.00;78.61;95151.66;5116242;28;1910;-70
2022/12/09 08:02:36;;;;;;;;;;;;;;;11.14;78.36;95159.06;5116186;28;1061;-69
2022/12/09 08:05:02;;;;;;;;;;;;;;;11.24;77.54;95160.75;5116016;28;1069;-69
2022/12/09 08:07:29;;;;;;;;;;;;;;;11.28;77.91;95173.63;5097980;28;1065;-69
2022/12/09 08:09:55;;;;;;;;;;;;;;;11.40;76.89;95168.81;5115793;28;997;-69
2022/12/09 08:12:21;;;;;;;;;;;;;;;11.55;76.92;95165.47;5116298;28;1006;-69
2022/12/09 08:14:47;;;;;;;;;;;;;;;11.62;76.23;95161.97;5115666;28;1033;-69
2022/12/09 08:17:13;;;;;;;;;;;;;;;11.67;76.16;95169.50;5115956;28;993;-69
2022/12/09 08:19:40;;;;;;;;;;;;;;;11.66;76.85;95168.66;5115752;28;1918;-69
2022/12/09 08:22:06;;;;;;;;;;;;;;;11.66;76.57;95170.50;5097726;28;1057;-70
2022/12/09 08:24:32;;;;;;;;;;;;;;;11.64;76.48;95170.66;5097364;28;961;-69
2022/12/09 08:26:59;;;;;;;;;;;;;;;11.62;76.64;95171.84;5115766;28;1140;-69
2022/12/09 08:29:25;;;;;;;;;;;;;;;11.61;76.53;95170.16;5115856;28;1025;-68
2022/12/09 08:31:51;;;;;;;;;;;;;;;11.57;77.69;95166.13;5115853;28;1013;-69
2022/12/09 08:34:17;;;;;;;;;;;;;;;11.32;78.84;95158.09;5115206;28;1115;-69
2022/12/09 08:36:43;;;;;;;;;;;;;;;11.37;78.63;95146.91;5097542;28;1020;-69
2022/12/09 08:39:10;;;;;;;;;;;;;;;11.44;77.73;95143.38;5115588;28;1890;-69
2022/12/09 08:41:36;;;;;;;;;;;;;;;11.43;77.45;95146.22;5115648;28;965;-69
2022/12/09 08:44:07;;;;;;;;;;;;;;;11.50;78.05;95147.25;5115349;28;1245;-69
2022/12/09 08:46:34;;;;;;;;;;;;;;;11.46;77.21;95145.91;5115459;28;988;-69
2022/12/09 08:49:00;;;;;;;;;;;;;;;11.43;78.40;95130.16;5115441;28;1172;-68
2022/12/09 08:51:28;;;;;;;;;;;;;;;11.53;78.70;95134.34;5115174;28;1049;-69
2022/12/09 08:53:54;;;;;;;;;;;;;;;11.52;78.23;95124.63;5115245;28;1009;-69
2022/12/09 08:56:20;;;;;;;;;;;;;;;11.56;77.81;95118.97;5097032;28;1507;-70
2022/12/09 08:58:47;;;;;;;;;;;;;;;11.57;78.33;95128.66;5115173;28;1987;-70
2022/12/09 09:01:14;;;;;;;;;;;;;;;11.57;77.96;95134.00;5115176;28;949;-70
2022/12/09 09:03:40;;;;;;;;;;;;;;;11.55;78.83;95127.97;5096756;28;978;-70
2022/12/09 09:06:07;;;;;;;;;;;;;;;11.50;78.90;95125.81;5096954;28;1050;-68
2022/12/09 09:08:33;;;;;;;;;;;;;;;11.52;78.86;95127.31;5114864;28;1120;-68
2022/12/09 09:10:59;;;;;;;;;;;;;;;11.55;78.38;95111.91;5097109;28;973;-69
2022/12/09 09:13:26;;;;;;;;;;;;;;;11.60;78.57;95114.94;5114483;28;1189;-68
2022/12/09 09:15:52;;;;;;;;;;;;;;;11.60;78.37;95107.72;5114849;28;1104;-69
2022/12/09 09:18:18;;;;;;;;;;;;;;;11.64;78.36;95108.22;5114766;28;1045;-69
2022/12/09 09:20:46;;;;;;;;;;;;;;;11.62;78.44;95104.91;5113844;28;1982;-70
2022/12/09 09:23:13;;;;;;;;;;;;;;;11.64;77.94;95102.88;5114436;28;1038;-69
2022/12/09 09:25:43;;;;;;;;;;;;;;;11.69;78.00;95100.53;5114745;28;954;-70
2022/12/09 09:28:09;;;;;;;;;;;;;;;11.68;77.36;95096.16;5114577;28;1062;-69
2022/12/09 09:30:36;;;;;;;;;;;;;;;11.69;77.48;95087.97;5114448;28;1037;-69
2022/12/09 09:33:02;;;;;;;;;;;;;;;11.66;77.46;95082.94;5114296;28;958;-68
2022/12/09 09:35:29;;;;;;;;;;;;;;;11.69;77.45;95087.97;5096104;28;1191;-69
2022/12/09 09:37:55;;;;;;;;;;;;;;;11.70;77.45;95081.63;5114437;28;1053;-69
2022/12/09 09:40:21;;;;;;;;;;;;;;;11.74;77.65;95082.09;5114193;28;1918;-69
2022/12/09 09:42:49;;;;;;;;;;;;;;;11.73;77.26;95078.59;5079543;28;1565;-68
2022/12/09 09:45:17;;;;;;;;;;;;;;;11.69;77.29;95079.13;5113984;28;1183;-69
2022/12/09 09:47:45;;;;;;;;;;;;;;;11.67;77.71;95073.91;5114229;28;1036;-69
2022/12/09 09:50:27;;;;;;;;;;;;;;;11.71;77.15;95069.06;5114191;28;1065;-69
2022/12/09 09:52:53;;;;;;;;;;;;;;;11.71;77.13;95066.38;5114419;28;969;-69
2022/12/09 09:55:26;;;;;;;;;;;;;;;11.84;76.97;95063.19;5113873;28;1214;-69
2022/12/09 09:58:28;;;;;;;;;;;;;;;11.91;77.32;95048.97;5096263;28;1417;-69
2022/12/09 10:00:58;;;;;;;;;;;;;;;12.03;76.87;95056.63;5011534;28;1910;-69
2022/12/09 10:03:34;;;;;;;;;;;;;;;11.96;77.54;95039.56;5095837;28;1344;-69
2022/12/09 10:06:05;;;;;;;;;;;;;;;12.16;76.21;95030.13;5095781;28;1724;-69
2022/12/09 10:08:34;;;;;;;;;;;;;;;12.32;75.35;95028.38;5095825;28;1065;-69
2022/12/09 10:11:13;;;;;;;;;;;;;;;12.57;74.69;95018.34;5113827;28;1053;-69
2022/12/09 10:13:45;;;;;;;;;;;;;;;12.65;74.05;95007.56;5113665;28;970;-69
2022/12/09 10:16:11;;;;;;;;;;;;;;;12.65;74.61;95011.09;5113862;28;1053;-69
2022/12/09 10:18:42;;;;;;;;;;;;;;;12.61;75.24;95001.72;5113795;28;1131;-69
2022/12/09 10:21:16;;;;;;;;;;;;;;;12.58;75.46;94994.03;5095631;28;1092;-70
2022/12/09 10:23:44;;;;;;;;;;;;;;;12.57;75.51;94989.69;5078856;28;1456;-69
2022/12/09 10:26:14;;;;;;;;;;;;;;;12.68;75.15;94985.75;5113788;28;1057;-70
2022/12/09 10:28:42;;;;;;;;;;;;;;;12.61;74.69;94984.81;5113876;28;969;-70
2022/12/09 10:31:10;;;;;;;;;;;;;;;12.58;74.75;94986.00;5113861;28;1013;-69
2022/12/09 10:33:37;;;;;;;;;;;;;;;12.57;74.92;94981.63;5117458;28;1342;-70
2022/12/09 10:36:04;;;;;;;;;;;;;;;12.54;74.77;94971.28;5099972;28;1143;-70
2022/12/09 10:38:34;;;;;;;;;;;;;;;12.54;74.54;94963.22;5117997;28;1150;-70
2022/12/09 10:41:05;;;;;;;;;;;;;;;12.60;74.34;94961.69;5118053;28;1973;-70
2022/12/09 10:43:37;;;;;;;;;;;;;;;12.61;74.36;94960.66;5117749;28;1292;-70
2022/12/09 10:46:05;;;;;;;;;;;;;;;12.66;73.87;94964.47;5117992;28;1020;-71
2022/12/09 10:48:33;;;;;;;;;;;;;;;12.93;72.56;94954.22;5117710;28;942;-70
2022/12/09 10:51:04;;;;;;;;;;;;;;;13.38;71.59;94943.63;5117785;28;1061;-70
2022/12/09 10:53:31;;;;;;;;;;;;;;;14.21;68.24;94949.72;5117510;28;1216;-70
2022/12/09 10:55:58;;;;;;;;;;;;;;;14.24;67.93;94944.75;5099156;28;1236;-70
2022/12/09 10:58:26;;;;;;;;;;;;;;;14.51;67.34;94939.69;5117349;28;1168;-70
2022/12/09 11:01:07;;;;;;;;;;;;;;;14.28;67.61;94936.31;5099338;28;1981;-70
2022/12/09 11:03:36;;;;;;;;;;;;;;;13.95;68.99;94928.69;5117423;28;1170;-70
2022/12/09 11:06:10;;;;;;;;;;;;;;;13.93;69.12;94931.56;5117420;28;1049;-70
2022/12/09 11:08:36;;;;;;;;;;;;;;;13.89;69.90;94937.50;5117095;28;1415;-70
2022/12/09 11:11:03;;;;;;;;;;;;;;;13.69;70.85;94930.00;5116922;28;1132;-70
2022/12/09 11:13:39;;;;;;;;;;;;;;;13.55;71.26;94928.16;5117275;28;1277;-70
2022/12/09 11:16:06;;;;;;;;;;;;;;;13.63;70.93;94925.38;5117285;28;1620;-70
2022/12/09 11:18:41;;;;;;;;;;;;;;;13.55;71.04;94917.41;5116868;28;1074;-70
2022/12/09 11:21:26;;;;;;;;;;;;;;;13.70;69.93;94914.72;5117283;28;2017;-70
2022/12/09 11:23:52;;;;;;;;;;;;;;;13.90;69.66;94909.59;5117259;28;1048;-70
2022/12/09 11:26:23;;;;;;;;;;;;;;;14.02;68.13;94908.94;5117028;28;1088;-69
2022/12/09 11:29:08;;;;;;;;;;;;;;;14.04;67.90;94911.44;5098732;28;1587;-68
2022/12/09 11:31:38;;;;;;;;;;;;;;;13.95;69.22;94910.72;5117023;28;1001;-70
2022/12/09 11:34:13;;;;;;;;;;;;;;;13.97;68.32;94899.78;5116779;28;1221;-70
2022/12/09 11:36:41;;;;;;;;;;;;;;;14.03;68.21;94905.22;5098781;28;1037;-74
2022/12/09 11:39:07;;;;;;;;;;;;;;;14.13;67.50;94907.59;5116808;28;1995;-67
2022/12/09 11:44:28;;;;;;;;;;;;;;;14.19;67.54;94914.94;5116095;28;1037;-70
2022/12/09 11:47:05;;;;;;;;;;;;;;;14.21;67.11;94914.75;5116652;28;1419;-69
2022/12/09 11:49:34;;;;;;;;;;;;;;;14.19;66.85;94904.19;5116638;28;1135;-70
2022/12/09 11:52:03;;;;;;;;;;;;;;;14.22;67.59;94903.78;5098483;28;1053;-69
2022/12/09 11:54:58;;;;;;;;;;;;;;;14.22;67.76;94890.34;5116388;28;1150;-67
2022/12/09 11:57:28;;;;;;;;;;;;;;;14.27;67.57;94900.53;5098508;28;1375;-67
2022/12/09 11:59:57;;;;;;;;;;;;;;;14.32;67.58;94892.72;5116664;28;1910;-67
2022/12/09 12:02:29;;;;;;;;;;;;;;;14.41;66.91;94906.88;5116380;28;1061;-67
2022/12/09 12:04:56;;;;;;;;;;;;;;;14.38;67.67;94907.25;5116430;28;965;-67
2022/12/09 12:07:34;;;;;;;;;;;;;;;14.37;66.87;94894.84;5115936;28;1179;-70
2022/12/09 12:10:01;;;;;;;;;;;;;;;14.31;67.27;94893.75;5116402;28;1007;-68
2022/12/09 12:12:36;;;;;;;;;;;;;;;14.27;67.18;94888.97;5116114;28;1097;-68
2022/12/09 12:15:15;;;;;;;;;;;;;;;14.24;67.62;94896.34;5116176;28;1065;-68
2022/12/09 12:17:46;;;;;;;;;;;;;;;14.20;67.48;94897.75;5115933;28;1200;-68
2022/12/09 12:20:13;;;;;;;;;;;;;;;14.25;67.18;94892.66;5097964;28;1914;-68
2022/12/09 12:22:54;;;;;;;;;;;;;;;14.12;67.42;94889.81;5115539;28;1050;-68
2022/12/09 12:25:27;;;;;;;;;;;;;;;14.20;67.55;94895.06;5116003;28;953;-70
2022/12/09 12:27:56;;;;;;;;;;;;;;;14.25;67.42;94897.22;5115845;28;1057;-67
2022/12/09 12:30:32;;;;;;;;;;;;;;;14.23;67.80;94889.34;5115855;28;1104;-68
2022/12/09 12:33:01;;;;;;;;;;;;;;;14.26;67.34;94885.41;5115814;28;1053;-72
2022/12/09 12:35:59;;;;;;;;;;;;;;;14.34;67.33;94884.47;5093416;28;1652;-71
2022/12/09 12:38:32;;;;;;;;;;;;;;;14.31;67.08;94890.25;5074892;28;1157;-71
2022/12/09 12:41:17;;;;;;;;;;;;;;;14.39;67.03;94903.56;5074884;28;1981;-70
2022/12/09 12:46:47;;;;;;;;;;;;;;;14.42;66.92;94901.31;5074977;28;1036;-70
2022/12/09 12:49:23;;;;;;;;;;;;;;;14.47;66.41;94881.09;5074776;28;1050;-70
2022/12/09 12:51:49;;;;;;;;;;;;;;;14.52;66.33;94890.25;5074683;28;954;-71
2022/12/09 12:54:33;;;;;;;;;;;;;;;14.52;66.71;94892.13;5074882;28;954;-70
2022/12/09 12:57:20;;;;;;;;;;;;;;;14.52;66.65;94897.50;5073796;28;1066;-71
2022/12/09 13:00:00;;;;;;;;;;;;;;;14.42;67.54;94897.81;5074311;28;2299;-71
2022/12/09 13:02:38;;;;;;;;;;;;;;;14.42;67.33;94905.88;5074507;28;1132;-70
2022/12/09 13:05:14;;;;;;;;;;;;;;;14.36;67.74;94898.56;5074687;28;1013;-70
2022/12/09 13:07:46;;;;;;;;;;;;;;;14.30;67.74;94894.75;5074378;28;1058;-70
2022/12/09 13:10:19;;;;;;;;;;;;;;;14.38;68.06;94891.97;5073442;28;1433;-70
2022/12/09 13:12:53;;;;;;;;;;;;;;;14.39;68.07;94890.13;5074129;28;1042;-70
2022/12/09 13:15:31;;;;;;;;;;;;;;;14.34;68.45;94879.94;5074535;28;1130;-69
2022/12/09 13:17:59;;;;;;;;;;;;;;;14.32;68.60;94879.28;5074302;28;1049;-70